[source: ADDS]
METAR
EDVE 261620Z 26011KT CAVOK 18/09 Q1018

TAF EDVE 261400Z 2615/2621 27011G24KT 9999 SCT045 BECMG 2616/2618 25008KT PROB30 TEMPO 2620/2621 RA EDDV 261620Z AUTO 25010KT 220V290 9999 SCT043 18/11 Q1017 TEMPO 29015G25KT

TAF EDDV 261100Z 2612/2712 27015G25KT 9999 SCT040 PROB30 TEMPO 2612/2615 26020G30KT BECMG 2616/2618 26010KT PROB30 TEMPO 2621/2702 27015G25KT 4500 RA BKN014 BECMG 2706/2709 28015G30KT PROB40 TEMPO 2710/2712 29020G40KT SHRA BKN020CB ETHS 261620Z AUTO 28008KT 8000 // ////// 17/07 Q1017 ///

ETHC 261620Z AUTO 24013KT 8000 // ////// 18/09 Q1017 ///

EDVK 261620Z 27010KT 9999 SCT046 19/08 Q1020

TAF EDVK 261400Z 2615/2624 27008KT 9999 SCT045
TAF
TAF EDVE 261400Z 2615/2621 27011G24KT 9999 SCT045 BECMG 2616/2618 25008KT PROB30 TEMPO 2620/2621 RA

TAF EDDV 261100Z 2612/2712 27015G25KT 9999 SCT040 PROB30 TEMPO 2612/2615 26020G30KT BECMG 2616/2618 26010KT PROB30 TEMPO 2621/2702 27015G25KT 4500 RA BKN014 BECMG 2706/2709 28015G30KT PROB40 TEMPO 2710/2712 29020G40KT SHRA BKN020CB

TAF EDVK 261400Z 2615/2624 27008KT 9999 SCT045

SR / SS: 03:07 / 19:21 UTC (EDVE 2022-05-26)
Herzlichen Glückwunsch zu bestandenen PPL(A) Prüfung, Fabian - always happy landings ! (19.5.) Herzlich Willkommen bei der FFG, Eike, und viel Spaß und Erfolg bei deiner Ausbildung. (22.04.) +++ Wir heißen Daniel H. als neuen Flugschüler willkommen und wünschen eine erfolgreiche Ausbildung! (01.04.) +++ Gratulation auch an Daniel P., der heute (31.03.) seinen ersten Alleinflug absolviert hat! Herzlichen Glückwunsch und weiterhin Happy Landings! +++ Norman hat am 15.03. seinen ersten Alleinflug absolviert! Herzlichen Glückwunsch und weiterhin Happy Landings! +++ Daniel hat heute (9.3.) seine Theoretische Prüfung bestanden! Herzlichen Glückwunsch und viel Spaß bei den nächsten Ausbildungsschritten +++ Marek hat heute (1.3.) seine Praktische Prüfung bestanden -Herzlichen Glückwunsch und Always Happy Landings +++ Herzlich Willkommen, Luis. Viel Spaß und Erfolg bei deiner Ausbildung. +++ Herzlich Willkommen, Maximilian. Viel Spaß und Erfolg bei deiner Ausbildung. +++ Simon hat heute (9.2.) seine Theoretische Prüfung bestanden - Herzlichen Glückwunsch +++ Paul hat heute (22. Nov) seine PPL-Prüfung bestanden! Herzlichen Glückwunsch und Always Happy Landings! +++ Willkommen bei der FFG, Vincent. Viel Spaß und Erfolg bei deiner Ausbildung! +++ Willkommen bei der FFG, Doris. Viel Spaß und Erfolg bei deiner Ausbildung! +++ Holger hat seine PPL-Prüfung bestanden! Gratulation und weiterhin Happy Landings! +++ Micha hat seine PPL-Prüfung bestanden! Gratulation und weiterhin Happy Landings! +++ Simon hat seinen ersten Alleinflug absolviert! Herzlichen Glückwunsch und weiterhin Happy Landings! +++ Wir heißen Torben als neuen Flugschüler willkommen und wünschen eine erfolgreiche Ausbildung! +++ Wir heißen Michel, Norman und Philip als neue Flugschüler willkommen und wünschen viel Spaß und Erfolg bei eurer Ausbildung! +++

wenig -> mittel -> viel

Professionelle Piloten arbeiten mit Checkliste
Ausdrucken und abarbeiten!

Weiterlesen ...

 Zugang zur DFS. Auf dem FFG-Account sind alle erforderlichen Daten unserer Maschinen hinterlegt.

DFS Login

Hier gibt es die AIP mit allen erforderlichen Karten die im Abo der FFG liegen zum Download für unsere Mitglieder.

Charts Zugang
Letztes NOTAM EDVE
von 20.05.2022 0721Z bis PERM
NIENBURG VOR NIE 116.5MHZ, R323 USABLE FM 27NM/2000FT AMSL, R311 USABLE FM 32NM/2500FT AMSL.

Letztes NOTAM EDCB
von 30.05.2022 0700Z bis 03.06.2022 1600Z
DAILY 0700-1000 1300-1600
AEROBATICS 2NM RADIUS CENTERED ON 514445N 0111347E BALLENSTEDT (10.7NM SW COCHSTEDT NDB CB).
GND- 560 [more]


Letztes NOTAM EDBC
von 01.04.2022 0000Z bis 30.06.2022 2359Z
GRASS RWY 07/25 CLOSED.

Letztes NOTAM EDVM
von 01.03.2022 0925Z bis 01.06.2022 2359Z
COVID-19: INFORMATION CONTACTLESS PAYMENTS VIA AEROPS PAYMENT APP (HTTPS://WWW.AEROPS.COM) PREFERRED.

Letztes NOTAM EDDV
von 25.05.2022 1115Z bis 22.08.2022 1200Z
ILS RWY 09L MM: CHECK DME READING ADDN. MARKER NOT REMOTE CONTTROLLED.

Letztes NOTAM EDVK
von 08.04.2022 0533Z bis 08.07.2022 2359Z
ILS AND LOC APCH RWY 27 FM WRB, TEMPO SUSPENDED, DUE TO OBST. RNAV(GPS) APCH AVBL. REF AIP AD 2 EDVK 4-2-1 DATED 17 JUN 2021.